Time;durP1;ratioP1;P1;durP2;ratioP2;P2;SDS_P1;SDS_P2;PMS_P1;PMS_P2;Temp;Humidity;BMP_temperature;BMP_pressure;BME280_temperature;BME280_humidity;BME280_pressure;Samples;Min_cycle;Max_cycle;Signal;HPM_P1;HPM_P2
2021/12/07 00:01:54;;;;;;;18.40;10.60;;;3.30;99.90;;;;;;4980931;28;20034;-67
2021/12/07 00:04:20;;;;;;;13.23;8.50;;;3.20;99.90;;;;;;4962858;28;20054;-67
2021/12/07 00:06:47;;;;;;;19.83;11.25;;;3.20;99.90;;;;;;4980781;28;20027;-67
2021/12/07 00:09:15;;;;;;;20.83;11.70;;;3.30;99.90;;;;;;4962626;28;20019;-69
2021/12/07 00:11:41;;;;;;;18.92;11.43;;;3.30;99.90;;;;;;4962881;28;20026;-67
2021/12/07 00:14:13;;;;;;;18.90;12.20;;;3.30;99.90;;;;;;4963155;28;20022;-67
2021/12/07 00:16:44;;;;;;;18.15;10.95;;;3.20;99.90;;;;;;4980087;28;20015;-69
2021/12/07 00:19:11;;;;;;;21.17;11.38;;;3.20;99.90;;;;;;4979906;28;20019;-70
2021/12/07 00:21:39;;;;;;;17.27;10.88;;;3.20;99.90;;;;;;4962516;28;20034;-66
2021/12/07 00:24:06;;;;;;;19.25;11.52;;;3.20;99.90;;;;;;4980082;28;20029;-68
2021/12/07 00:26:32;;;;;;;15.43;10.80;;;3.20;99.90;;;;;;4979479;28;20039;-67
2021/12/07 00:28:59;;;;;;;19.52;11.35;;;3.10;99.90;;;;;;4979455;28;20018;-69
2021/12/07 00:31:51;;;;;;;19.02;11.43;;;3.20;99.90;;;;;;4979437;28;20023;-69
2021/12/07 00:35:15;;;;;;;17.17;10.90;;;3.10;99.90;;;;;;4979417;28;20026;-68
2021/12/07 00:37:07;;;;;;;19.52;12.05;;;3.20;99.90;;;;;;4969336;28;20182;-68
2021/12/07 00:39:33;;;;;;;18.92;11.40;;;3.10;99.90;;;;;;4979139;28;20022;-68
2021/12/07 00:41:58;;;;;;;16.38;10.88;;;3.20;99.90;;;;;;4962264;28;20090;-70
2021/12/07 00:44:26;;;;;;;18.02;10.70;;;3.10;99.90;;;;;;4979481;28;20066;-68
2021/12/07 00:46:52;;;;;;;20.30;11.25;;;3.20;99.90;;;;;;4962511;28;20023;-67
2021/12/07 00:49:19;;;;;;;19.30;10.98;;;3.20;99.90;;;;;;4979307;28;20114;-68
2021/12/07 00:51:46;;;;;;;17.83;11.73;;;3.30;99.90;;;;;;4962878;28;20145;-68
2021/12/07 00:54:13;;;;;;;19.23;11.50;;;3.30;99.90;;;;;;4962703;28;20034;-70
2021/12/07 00:56:39;;;;;;;17.88;11.57;;;3.30;99.90;;;;;;4962683;28;20037;-71
2021/12/07 00:59:05;;;;;;;20.13;11.55;;;3.20;99.90;;;;;;4962418;28;20030;-71
2021/12/07 01:04:16;;;;;;;22.15;11.98;;;3.30;99.90;;;;;;4979258;28;20254;-69
2021/12/07 01:07:00;;;;;;;18.40;11.63;;;3.20;99.90;;;;;;4962225;28;20019;-68
2021/12/07 01:24:39;;;;;;;19.77;11.63;;;3.20;99.90;;;;;;4979224;28;20038;-69
2021/12/07 01:26:23;;;;;;;19.80;11.98;;;3.10;99.90;;;;;;4978625;28;20066;-70
2021/12/07 01:28:48;;;;;;;21.08;12.98;;;3.10;99.90;;;;;;4979743;28;20207;-71
2021/12/07 01:31:22;;;;;;;19.55;12.00;;;3.10;99.90;;;;;;4979070;28;20210;-70
2021/12/07 01:48:05;;;;;;;20.83;12.73;;;3.10;99.90;;;;;;4983516;28;20015;-68
2021/12/07 02:00:51;;;;;;;20.55;12.07;;;3.00;99.90;;;;;;4983215;28;20030;-68
2021/12/07 02:03:17;;;;;;;21.33;12.32;;;3.00;99.90;;;;;;4965323;28;20023;-68
2021/12/07 02:05:43;;;;;;;20.65;12.45;;;3.00;99.90;;;;;;4982648;28;20027;-69
2021/12/07 02:08:09;;;;;;;21.63;12.43;;;3.00;99.90;;;;;;4965403;28;20081;-71
2021/12/07 02:10:35;;;;;;;20.67;12.48;;;3.00;99.90;;;;;;4964786;28;20067;-68
2021/12/07 02:13:06;;;;;;;24.42;13.27;;;2.90;99.90;;;;;;4982755;28;20039;-69
2021/12/07 02:15:33;;;;;;;22.92;13.38;;;3.00;99.90;;;;;;4964465;28;20081;-67
2021/12/07 02:18:00;;;;;;;20.63;12.90;;;3.00;99.90;;;;;;4982616;28;20137;-69
2021/12/07 02:20:29;;;;;;;22.98;12.90;;;3.00;99.90;;;;;;4982149;28;20069;-68
2021/12/07 02:22:56;;;;;;;22.90;13.25;;;3.00;99.90;;;;;;4965365;28;20047;-66
2021/12/07 02:25:22;;;;;;;21.92;12.85;;;3.00;99.90;;;;;;4981712;28;20082;-67
2021/12/07 02:27:48;;;;;;;23.13;13.70;;;3.00;99.90;;;;;;4965105;28;20096;-69
2021/12/07 02:30:17;;;;;;;22.60;13.38;;;3.00;99.90;;;;;;4982119;28;20054;-71
2021/12/07 02:32:44;;;;;;;23.30;12.65;;;3.10;99.90;;;;;;4965189;28;20041;-67
2021/12/07 02:35:12;;;;;;;21.77;13.68;;;3.10;99.90;;;;;;4982350;28;20140;-68
2021/12/07 02:37:38;;;;;;;;;;;3.10;99.90;;;;;;4963413;28;20032;-70
2021/12/07 02:40:07;;;;;;;21.17;13.32;;;3.20;99.90;;;;;;4964438;28;19907;-68
2021/12/07 02:42:34;;;;;;;21.52;13.15;;;3.20;99.90;;;;;;4964666;28;20069;-68
2021/12/07 02:44:59;;;;;;;20.27;12.00;;;3.20;99.90;;;;;;4964424;28;20107;-71
2021/12/07 02:47:26;;;;;;;23.00;13.55;;;3.20;99.90;;;;;;4981455;28;20026;-68
2021/12/07 02:49:51;;;;;;;20.25;12.95;;;3.20;99.90;;;;;;4964604;28;20082;-68
2021/12/07 02:52:17;;;;;;;23.70;13.50;;;3.20;99.90;;;;;;4963634;28;20054;-69
2021/12/07 02:54:49;;;;;;;23.95;14.07;;;3.20;99.90;;;;;;4964240;28;20026;-67
2021/12/07 02:57:18;;;;;;;23.55;12.30;;;3.20;99.90;;;;;;4964595;28;20033;-70
2021/12/07 02:59:49;;;;;;;18.85;12.50;;;3.30;99.90;;;;;;4964151;28;20027;-67
2021/12/07 03:02:17;;;;;;;23.23;13.88;;;3.30;99.90;;;;;;4981520;28;20023;-69
2021/12/07 03:26:42;;;;;;;23.08;14.00;;;3.10;99.90;;;;;;4981681;28;20034;-67
2021/12/07 03:29:08;;;;;;;19.98;13.32;;;3.10;99.90;;;;;;4964458;28;20342;-67
2021/12/07 03:31:34;;;;;;;21.75;12.57;;;3.10;99.90;;;;;;4980774;28;20156;-67
2021/12/07 03:34:01;;;;;;;19.88;12.38;;;3.10;99.90;;;;;;4963538;28;20156;-69
2021/12/07 03:36:27;;;;;;;22.58;13.43;;;3.20;99.90;;;;;;4981346;28;20018;-69
2021/12/07 03:38:53;;;;;;;19.95;13.27;;;3.20;99.90;;;;;;4963799;28;20023;-70
2021/12/07 03:41:20;;;;;;;24.08;13.40;;;3.10;99.90;;;;;;4963147;28;20029;-70
2021/12/07 03:43:46;;;;;;;24.48;14.05;;;3.10;99.90;;;;;;4980963;28;20034;-70
2021/12/07 03:46:13;;;;;;;23.25;13.68;;;3.10;99.90;;;;;;4963823;28;20015;-68
2021/12/07 03:48:42;;;;;;;25.48;13.30;;;3.00;99.90;;;;;;4963731;28;20030;-70
2021/12/07 03:51:08;;;;;;;21.88;12.80;;;3.00;99.90;;;;;;4981320;28;20054;-68
2021/12/07 03:53:34;;;;;;;21.88;12.88;;;3.00;99.90;;;;;;4963104;28;20054;-69
2021/12/07 03:56:01;;;;;;;21.58;12.88;;;3.00;99.90;;;;;;4980790;28;20019;-69
2021/12/07 03:58:28;;;;;;;22.65;12.98;;;3.00;99.90;;;;;;4963175;28;20048;-69
2021/12/07 04:00:55;;;;;;;23.92;13.60;;;3.00;99.90;;;;;;4963085;28;20269;-69
2021/12/07 04:03:22;;;;;;;26.30;14.80;;;2.90;99.90;;;;;;4979587;28;20054;-68
2021/12/07 04:05:53;;;;;;;23.15;14.02;;;2.90;99.90;;;;;;4980711;28;20035;-68
2021/12/07 04:08:23;;;;;;;22.15;13.13;;;2.90;99.90;;;;;;4962972;28;20018;-70
2021/12/07 04:10:49;;;;;;;23.05;13.27;;;2.90;99.90;;;;;;4962818;28;20027;-70
2021/12/07 04:13:15;;;;;;;22.90;14.15;;;2.90;99.90;;;;;;4963089;28;20069;-70
2021/12/07 04:15:42;;;;;;;22.65;13.32;;;2.90;99.90;;;;;;4979893;28;20255;-69
2021/12/07 04:18:09;;;;;;;24.75;14.43;;;2.90;99.90;;;;;;4980025;28;20030;-68
2021/12/07 04:20:36;;;;;;;24.23;13.48;;;3.00;99.90;;;;;;4962552;28;20361;-67
2021/12/07 04:23:02;;;;;;;25.70;14.13;;;2.90;99.90;;;;;;4963173;28;20027;-67
2021/12/07 04:25:28;;;;;;;23.45;13.80;;;2.90;99.90;;;;;;4979775;28;20027;-68
2021/12/07 04:27:55;;;;;;;25.63;14.13;;;2.90;99.90;;;;;;4962931;28;20029;-67
2021/12/07 04:30:31;;;;;;;23.70;13.55;;;2.90;99.90;;;;;;4979653;28;20029;-68
2021/12/07 04:32:58;;;;;;;22.27;13.90;;;2.80;99.90;;;;;;4963382;28;20101;-68
2021/12/07 04:35:25;;;;;;;22.63;14.52;;;2.90;99.90;;;;;;4979521;28;20018;-68
2021/12/07 04:37:51;;;;;;;25.30;14.52;;;3.00;99.90;;;;;;4962784;28;20102;-67
2021/12/07 04:40:20;;;;;;;26.67;15.38;;;3.00;99.90;;;;;;4962692;28;20030;-71
2021/12/07 04:42:46;;;;;;;23.40;14.38;;;3.00;99.90;;;;;;4962917;28;20034;-68
2021/12/07 04:45:25;;;;;;;23.70;14.15;;;3.00;99.90;;;;;;4962822;28;20031;-68
2021/12/07 04:48:24;;;;;;;26.92;13.25;;;3.00;99.90;;;;;;4963055;28;20026;-68
2021/12/07 04:58:34;;;;;;;25.70;14.90;;;3.00;99.90;;;;;;4979863;28;20106;-68
2021/12/07 05:01:06;;;;;;;24.90;14.00;;;3.00;99.90;;;;;;4979618;28;20035;-69
2021/12/07 05:03:32;;;;;;;23.52;14.30;;;3.00;99.90;;;;;;4979768;28;20066;-68
2021/12/07 05:05:57;;;;;;;26.05;16.17;;;3.00;99.90;;;;;;4980170;28;20297;-68
2021/12/07 05:09:34;;;;;;;24.38;14.55;;;2.90;99.90;;;;;;4979259;28;20027;-67
2021/12/07 05:23:53;;;;;;;28.67;15.68;;;2.90;99.90;;;;;;4980204;28;20022;-70
2021/12/07 05:24:48;;;;;;;27.92;15.43;;;2.80;99.90;;;;;;4979317;28;20030;-69
2021/12/07 05:37:59;;;;;;;31.90;16.15;;;3.00;99.90;;;;;;4980056;28;20089;-69
2021/12/07 05:40:32;;;;;;;29.73;16.00;;;3.00;99.90;;;;;;4979069;28;20066;-69
2021/12/07 05:42:58;;;;;;;28.88;15.02;;;3.00;99.90;;;;;;4962569;28;20027;-69
2021/12/07 05:45:27;;;;;;;29.05;16.40;;;2.90;99.90;;;;;;4979100;28;20027;-67
2021/12/07 05:47:53;;;;;;;28.42;15.40;;;2.90;99.90;;;;;;4979604;28;20110;-67
2021/12/07 05:50:24;;;;;;;26.55;14.43;;;2.90;99.90;;;;;;4978862;28;20122;-70
2021/12/07 05:52:49;;;;;;;28.60;14.73;;;2.80;99.90;;;;;;4946147;28;20350;-70
2021/12/07 05:55:15;;;;;;;26.92;15.60;;;2.80;99.90;;;;;;4979331;28;20062;-69
2021/12/07 05:57:41;;;;;;;25.60;14.82;;;2.80;99.90;;;;;;4961421;28;20326;-68
2021/12/07 06:00:13;;;;;;;28.15;16.63;;;2.80;99.90;;;;;;4962132;28;20026;-69
2021/12/07 06:02:39;;;;;;;27.63;15.43;;;2.80;99.90;;;;;;4961375;28;20340;-70
2021/12/07 06:05:05;;;;;;;30.23;17.20;;;2.90;99.90;;;;;;4979075;28;20035;-67
2021/12/07 06:07:31;;;;;;;28.17;15.07;;;2.80;99.90;;;;;;4978613;28;20073;-69
2021/12/07 06:09:57;;;;;;;27.25;15.98;;;2.80;99.90;;;;;;4961719;28;20229;-68
2021/12/07 06:12:22;;;;;;;29.90;15.35;;;2.80;99.90;;;;;;4978611;28;20023;-68
2021/12/07 06:14:48;;;;;;;29.65;15.70;;;2.90;99.90;;;;;;4979199;28;20311;-71
2021/12/07 06:17:14;;;;;;;25.25;14.43;;;2.90;99.90;;;;;;4961874;28;20277;-69
2021/12/07 06:19:40;;;;;;;32.85;15.18;;;3.00;99.90;;;;;;4978480;28;20103;-67
2021/12/07 06:22:06;;;;;;;27.50;14.57;;;3.00;99.90;;;;;;4979228;28;20023;-68
2021/12/07 06:24:33;;;;;;;25.58;14.63;;;3.00;99.90;;;;;;4978662;28;20022;-69
2021/12/07 06:26:59;;;;;;;27.45;15.80;;;3.00;99.90;;;;;;4963706;28;20023;-71
2021/12/07 06:29:25;;;;;;;27.63;15.32;;;3.00;99.90;;;;;;4964577;28;20081;-67
2021/12/07 06:31:53;;;;;;;32.03;15.48;;;3.00;99.90;;;;;;4982571;28;20050;-68
2021/12/07 06:34:20;;;;;;;25.65;14.20;;;2.90;99.90;;;;;;4982535;28;20046;-68
2021/12/07 06:36:46;;;;;;;25.80;14.57;;;2.90;99.90;;;;;;4965389;28;20022;-68
2021/12/07 06:39:11;;;;;;;35.25;15.98;;;2.90;99.90;;;;;;4965125;28;20030;-67
2021/12/07 06:41:37;;;;;;;23.15;14.63;;;2.90;99.90;;;;;;4964701;28;20328;-67
2021/12/07 06:44:03;;;;;;;30.45;15.85;;;2.80;99.90;;;;;;4982404;28;20038;-68
2021/12/07 06:46:29;;;;;;;32.28;15.95;;;2.90;99.90;;;;;;4981674;28;20097;-75
2021/12/07 06:48:55;;;;;;;28.85;15.82;;;2.90;99.90;;;;;;4964947;28;20023;-68
2021/12/07 06:51:22;;;;;;;30.73;15.70;;;2.90;99.90;;;;;;4981785;28;20078;-68
2021/12/07 06:53:47;;;;;;;27.95;14.82;;;2.90;99.90;;;;;;4982003;28;20110;-67
2021/12/07 06:56:13;;;;;;;25.40;14.60;;;2.90;99.90;;;;;;4982015;28;20203;-66
2021/12/07 06:58:39;;;;;;;28.17;15.40;;;2.90;99.90;;;;;;4964037;28;20103;-70
2021/12/07 07:01:07;;;;;;;25.23;15.02;;;2.90;99.90;;;;;;4981753;28;20026;-67
2021/12/07 07:03:36;;;;;;;26.40;14.77;;;3.10;99.90;;;;;;4948134;28;20371;-68
2021/12/07 07:06:03;;;;;;;28.63;16.20;;;3.00;99.90;;;;;;4964722;28;20026;-67
2021/12/07 07:08:29;;;;;;;25.50;15.13;;;3.10;99.90;;;;;;4981522;28;20023;-68
2021/12/07 07:10:55;;;;;;;26.17;15.80;;;3.00;99.90;;;;;;4982412;28;20222;-68
2021/12/07 07:13:21;;;;;;;30.10;14.85;;;2.90;99.90;;;;;;4965018;28;20023;-68
2021/12/07 07:15:47;;;;;;;29.13;15.52;;;2.90;99.90;;;;;;4982503;28;20022;-69
2021/12/07 07:18:12;;;;;;;28.77;15.95;;;2.90;99.90;;;;;;4965115;28;20018;-69
2021/12/07 07:20:38;;;;;;;31.13;16.17;;;2.80;99.90;;;;;;4981755;28;20034;-69
2021/12/07 07:23:04;;;;;;;28.25;15.27;;;2.80;99.90;;;;;;4982566;28;20298;-68
2021/12/07 07:25:31;;;;;;;30.05;17.17;;;2.80;99.90;;;;;;4981443;28;20029;-68
2021/12/07 07:27:57;;;;;;;29.15;15.93;;;2.80;99.90;;;;;;4964814;28;20030;-68
2021/12/07 07:30:23;;;;;;;32.00;15.45;;;2.80;99.90;;;;;;4981473;28;20041;-69
2021/12/07 07:32:50;;;;;;;28.77;14.88;;;2.80;99.90;;;;;;4964921;28;20027;-68
2021/12/07 07:35:17;;;;;;;30.60;16.45;;;2.80;99.90;;;;;;4964817;28;20038;-69
2021/12/07 07:37:45;;;;;;;31.92;17.05;;;2.80;99.90;;;;;;4981258;28;20049;-68
2021/12/07 07:40:16;;;;;;;31.02;16.35;;;2.80;99.90;;;;;;4981885;28;20034;-69
2021/12/07 07:42:43;;;;;;;25.65;14.57;;;2.80;99.90;;;;;;4964357;28;20218;-68
2021/12/07 07:45:10;;;;;;;30.55;16.48;;;2.90;99.90;;;;;;4964669;28;20037;-69
2021/12/07 07:47:36;;;;;;;28.75;15.68;;;2.80;99.90;;;;;;4964407;28;20093;-68
2021/12/07 07:50:03;;;;;;;31.23;15.90;;;2.80;99.90;;;;;;4964637;28;20033;-68
2021/12/07 07:52:29;;;;;;;30.73;16.00;;;2.90;99.90;;;;;;4963900;28;20058;-68
2021/12/07 07:54:55;;;;;;;30.83;16.38;;;2.90;99.90;;;;;;4964432;28;20086;-65
2021/12/07 07:57:20;;;;;;;30.55;16.88;;;2.90;99.90;;;;;;4964000;28;20018;-68
2021/12/07 07:59:46;;;;;;;32.45;17.35;;;2.80;99.90;;;;;;4981816;28;20294;-69
2021/12/07 08:02:12;;;;;;;31.70;18.63;;;2.80;99.90;;;;;;4981446;28;20027;-67
2021/12/07 08:04:37;;;;;;;29.20;17.10;;;2.80;99.90;;;;;;4981148;28;20331;-73
2021/12/07 08:07:03;;;;;;;29.20;16.45;;;2.80;99.90;;;;;;4981157;28;20070;-70
2021/12/07 08:09:29;;;;;;;35.45;20.73;;;2.80;99.90;;;;;;4959860;28;20031;-81
2021/12/07 08:11:55;;;;;;;32.85;18.23;;;2.80;99.90;;;;;;4961711;28;20022;-79
2021/12/07 08:14:21;;;;;;;35.22;16.83;;;2.80;99.90;;;;;;4971254;28;20027;-74
2021/12/07 08:17:05;;;;;;;36.55;18.40;;;2.90;99.90;;;;;;4964680;28;20025;-74
2021/12/07 08:19:32;;;;;;;30.65;17.00;;;2.90;99.90;;;;;;4979750;28;20034;-73
2021/12/07 08:21:57;;;;;;;29.25;16.40;;;2.90;99.90;;;;;;4981846;28;20181;-73
2021/12/07 08:24:23;;;;;;;30.90;17.30;;;2.90;99.90;;;;;;4963375;28;20239;-72
2021/12/07 08:26:49;;;;;;;28.92;16.77;;;2.90;99.90;;;;;;4964173;28;20022;-70
2021/12/07 08:29:14;;;;;;;29.38;16.23;;;3.00;99.90;;;;;;4964511;28;20018;-71
2021/12/07 08:31:40;;;;;;;31.38;16.90;;;3.10;99.90;;;;;;4963507;28;20026;-68
2021/12/07 08:34:06;;;;;;;28.67;16.38;;;3.00;99.90;;;;;;4963619;28;20041;-68
2021/12/07 08:36:31;;;;;;;31.52;16.52;;;3.00;99.90;;;;;;4980158;28;20023;-67
2021/12/07 08:38:57;;;;;;;27.92;15.60;;;3.00;99.90;;;;;;4980967;28;20014;-67
2021/12/07 08:41:23;;;;;;;25.75;14.48;;;3.00;99.90;;;;;;4980529;28;20038;-66
2021/12/07 08:43:49;;;;;;;26.23;14.13;;;2.90;99.90;;;;;;4980502;28;20289;-71
2021/12/07 08:46:16;;;;;;;27.45;15.20;;;3.00;99.90;;;;;;4980468;28;20081;-69
2021/12/07 08:48:42;;;;;;;27.10;15.52;;;3.00;99.90;;;;;;4963121;28;20302;-68
2021/12/07 08:51:09;;;;;;;26.80;15.10;;;3.00;99.90;;;;;;4963338;28;20033;-71
2021/12/07 08:53:42;;;;;;;25.17;14.38;;;3.00;99.90;;;;;;4980359;28;20180;-68
2021/12/07 09:01:36;;;;;;;25.88;13.88;;;2.90;99.90;;;;;;4979710;28;20029;-67
2021/12/07 09:04:03;;;;;;;27.60;15.25;;;2.90;99.90;;;;;;4962953;28;20260;-69
2021/12/07 09:06:30;;;;;;;27.33;14.23;;;2.90;99.90;;;;;;4962593;28;20082;-71
2021/12/07 09:08:56;;;;;;;23.90;13.65;;;2.90;99.90;;;;;;4964621;28;20321;-68
2021/12/07 09:11:23;;;;;;;28.83;15.82;;;2.90;99.90;;;;;;4981611;28;20030;-68
2021/12/07 09:13:48;;;;;;;23.65;14.18;;;2.90;99.90;;;;;;4963414;28;20222;-67
2021/12/07 09:16:17;;;;;;;25.40;14.20;;;3.00;99.90;;;;;;4947075;28;20177;-72
2021/12/07 09:18:44;;;;;;;22.02;13.63;;;3.00;99.90;;;;;;4963016;28;20023;-68
2021/12/07 09:21:10;;;;;;;25.48;14.73;;;3.00;99.90;;;;;;4980401;28;20018;-67
2021/12/07 09:23:36;;;;;;;27.98;13.68;;;3.10;99.90;;;;;;4980032;28;20034;-72
2021/12/07 09:26:03;;;;;;;24.85;13.63;;;3.10;99.90;;;;;;4980397;28;20034;-69
2021/12/07 09:28:30;;;;;;;41.20;14.50;;;3.10;99.90;;;;;;4979457;28;20038;-68
2021/12/07 09:30:57;;;;;;;30.40;13.70;;;3.10;99.90;;;;;;4974851;28;20263;-68
2021/12/07 09:33:26;;;;;;;26.73;14.65;;;3.10;99.90;;;;;;4962944;28;20221;-68
2021/12/07 09:35:53;;;;;;;21.75;13.38;;;3.20;99.90;;;;;;4979520;28;20030;-70
2021/12/07 09:38:19;;;;;;;22.90;13.80;;;3.30;99.90;;;;;;4961994;28;20023;-69
2021/12/07 09:40:46;;;;;;;25.95;13.65;;;3.40;99.90;;;;;;4979490;28;20073;-68
2021/12/07 09:43:13;;;;;;;25.83;14.48;;;3.40;99.90;;;;;;4962873;28;20022;-68
2021/12/07 09:45:40;;;;;;;29.77;15.07;;;3.40;99.90;;;;;;4979863;28;20026;-68
2021/12/07 09:48:09;;;;;;;23.83;13.48;;;3.40;99.90;;;;;;4979820;28;20042;-67
2021/12/07 09:50:35;;;;;;;;;;;3.50;99.90;;;;;;4979895;28;20070;-68
2021/12/07 09:53:03;;;;;;;25.95;14.43;;;3.60;99.90;;;;;;4979279;28;19978;-68
2021/12/07 09:55:29;;;;;;;26.55;13.90;;;3.60;99.90;;;;;;4979221;28;20023;-68
2021/12/07 09:57:56;;;;;;;24.63;13.10;;;3.70;99.90;;;;;;4980011;28;20027;-68
2021/12/07 10:00:24;;;;;;;25.25;14.07;;;3.70;99.90;;;;;;4978754;28;20129;-68
2021/12/07 10:02:51;;;;;;;23.45;14.05;;;3.80;99.90;;;;;;4982602;28;20023;-68
2021/12/07 10:05:19;;;;;;;27.60;14.32;;;3.90;99.90;;;;;;4966084;28;20033;-68
2021/12/07 10:07:46;;;;;;;;;;;3.90;99.90;;;;;;4984089;28;20090;-68
2021/12/07 10:10:22;;;;;;;25.27;14.07;;;4.00;99.90;;;;;;4966135;28;19902;-68
2021/12/07 10:12:49;;;;;;;29.30;15.82;;;4.20;99.90;;;;;;4983006;28;20023;-68
2021/12/07 10:15:15;;;;;;;28.17;14.98;;;4.20;99.90;;;;;;4966421;28;20023;-68
2021/12/07 10:17:42;;;;;;;26.88;13.30;;;4.30;99.90;;;;;;4965729;28;20353;-68
2021/12/07 10:20:32;;;;;;;27.27;15.32;;;4.40;99.90;;;;;;4983301;28;20145;-68
2021/12/07 10:23:20;;;;;;;24.85;13.77;;;4.30;99.90;;;;;;4965920;28;20328;-69
2021/12/07 10:26:05;;;;;;;23.63;14.32;;;4.40;99.90;;;;;;4966514;28;20026;-68
2021/12/07 10:28:31;;;;;;;24.40;14.80;;;4.50;99.90;;;;;;4965713;28;20023;-68
2021/12/07 10:31:06;;;;;;;28.60;15.50;;;4.40;99.90;;;;;;4965651;28;20027;-68
2021/12/07 10:33:41;;;;;;;27.08;16.13;;;4.40;99.90;;;;;;4982507;28;20026;-67
2021/12/07 10:36:07;;;;;;;27.58;15.05;;;4.40;99.90;;;;;;4982814;28;20265;-69
2021/12/07 10:38:34;;;;;;;24.08;14.95;;;4.40;99.90;;;;;;4981504;28;20023;-68
2021/12/07 10:41:02;;;;;;;19.73;13.82;;;4.40;99.90;;;;;;4964419;28;20023;-69
2021/12/07 10:43:48;;;;;;;26.67;15.00;;;4.50;99.90;;;;;;4982377;28;20027;-70
2021/12/07 10:46:33;;;;;;;29.58;14.38;;;4.50;99.90;;;;;;4983007;28;20030;-68
2021/12/07 10:49:13;;;;;;;21.27;12.82;;;4.40;99.90;;;;;;4983134;28;20042;-68
2021/12/07 10:51:41;;;;;;;21.30;13.05;;;4.50;99.90;;;;;;4963624;28;20027;-68
2021/12/07 10:54:07;;;;;;;24.13;13.73;;;4.50;99.90;;;;;;4965406;28;20110;-67
2021/12/07 10:56:37;;;;;;;22.80;13.43;;;4.60;99.90;;;;;;4965116;28;20270;-67
2021/12/07 10:59:06;;;;;;;22.30;13.75;;;4.70;99.90;;;;;;4965619;28;20023;-70
2021/12/07 11:01:40;;;;;;;;;;;4.70;99.90;;;;;;4965415;28;20045;-70
2021/12/07 11:04:33;;;;;;;21.60;12.98;;;4.70;99.90;;;;;;4982388;28;19906;-71
2021/12/07 11:07:19;;;;;;;20.77;12.60;;;4.70;99.90;;;;;;4964405;28;20069;-70
2021/12/07 11:09:48;;;;;;;21.48;12.68;;;4.60;99.90;;;;;;4965051;28;20062;-71
2021/12/07 11:12:21;;;;;;;23.02;13.75;;;4.60;99.90;;;;;;4982892;28;20027;-70
2021/12/07 11:14:52;;;;;;;26.70;13.90;;;4.50;99.90;;;;;;4965088;28;20125;-70
2021/12/07 11:17:27;;;;;;;25.25;14.05;;;4.50;99.90;;;;;;4965262;28;20186;-72
2021/12/07 11:19:54;;;;;;;26.63;14.82;;;4.50;99.90;;;;;;4964635;28;20074;-70
2021/12/07 11:22:24;;;;;;;20.50;12.95;;;4.50;99.90;;;;;;4964995;28;20038;-70
2021/12/07 11:24:52;;;;;;;23.33;13.27;;;4.60;99.90;;;;;;4964198;28;20023;-69
2021/12/07 11:30:14;;;;;;;24.33;14.52;;;4.60;99.90;;;;;;4981607;28;20030;-70
2021/12/07 11:32:55;;;;;;;24.35;13.57;;;4.60;99.90;;;;;;4964637;28;20030;-69
2021/12/07 11:35:43;;;;;;;23.83;13.55;;;4.60;99.90;;;;;;4982143;28;20041;-71
2021/12/07 11:38:09;;;;;;;;;;;4.60;99.90;;;;;;4982148;28;20033;-69
2021/12/07 11:40:38;;;;;;;23.67;12.88;;;4.60;99.90;;;;;;4981705;28;19968;-71
2021/12/07 11:43:17;;;;;;;19.77;12.07;;;4.50;99.90;;;;;;4981962;28;20065;-69
2021/12/07 11:45:44;;;;;;;20.13;12.18;;;4.50;99.90;;;;;;4964466;28;20372;-69
2021/12/07 11:48:11;;;;;;;25.15;14.32;;;4.50;99.90;;;;;;4964951;28;20043;-69
2021/12/07 11:50:40;;;;;;;24.85;15.38;;;4.40;99.90;;;;;;4981487;28;20290;-69
2021/12/07 11:53:09;;;;;;;25.58;15.70;;;4.40;99.90;;;;;;4961199;28;20047;-70
2021/12/07 11:55:36;;;;;;;22.80;14.20;;;4.40;99.90;;;;;;4960985;29;20031;-69
2021/12/07 11:58:05;;;;;;;27.75;13.68;;;4.30;99.90;;;;;;4962365;28;20023;-69
2021/12/07 12:00:39;;;;;;;30.27;16.00;;;4.40;99.90;;;;;;4961598;28;20019;-68
2021/12/07 12:03:09;;;;;;;24.38;14.35;;;4.40;99.90;;;;;;4962471;28;20027;-69
2021/12/07 12:05:37;;;;;;;25.83;14.48;;;4.40;99.90;;;;;;4960478;29;20022;-69
2021/12/07 12:08:08;;;;;;;20.85;13.60;;;4.40;99.90;;;;;;4961481;29;20294;-69
2021/12/07 12:10:35;;;;;;;24.08;12.95;;;4.50;99.90;;;;;;4957203;29;20027;-69
2021/12/07 12:13:21;;;;;;;27.30;14.82;;;4.50;99.90;;;;;;4956576;29;20237;-69
2021/12/07 12:16:02;;;;;;;21.02;13.45;;;4.60;99.90;;;;;;4959641;28;20256;-69
2021/12/07 12:18:48;;;;;;;31.42;14.10;;;4.50;99.90;;;;;;4960609;29;20019;-71
2021/12/07 12:21:19;;;;;;;21.95;13.38;;;4.50;99.90;;;;;;4960378;29;20055;-69
2021/12/07 12:24:28;;;;;;;23.80;12.95;;;4.50;99.90;;;;;;4960154;28;20020;-68
2021/12/07 12:27:11;;;;;;;22.63;13.05;;;4.60;99.90;;;;;;4924830;29;20039;-68
2021/12/07 12:29:39;;;;;;;26.83;14.60;;;4.60;99.90;;;;;;4956697;29;20218;-69
2021/12/07 12:32:06;;;;;;;29.90;16.25;;;4.50;99.90;;;;;;4960344;29;20031;-71
2021/12/07 12:34:35;;;;;;;52.33;28.15;;;4.60;99.90;;;;;;4961150;28;20063;-72
2021/12/07 12:37:15;;;;;;;31.17;15.68;;;4.60;99.90;;;;;;4961713;28;20051;-68
2021/12/07 12:39:50;;;;;;;25.40;14.50;;;4.60;99.90;;;;;;4959872;29;20214;-71
2021/12/07 12:42:50;;;;;;;28.92;16.58;;;4.60;99.90;;;;;;4960344;29;20031;-69
2021/12/07 12:45:31;;;;;;;28.30;14.98;;;4.60;99.90;;;;;;4949761;29;20032;-78
2021/12/07 12:48:08;;;;;;;32.08;16.58;;;4.60;99.90;;;;;;4961354;28;20047;-71
2021/12/07 12:50:42;;;;;;;35.22;20.00;;;4.60;99.90;;;;;;4958883;28;20268;-72
2021/12/07 12:53:17;;;;;;;32.25;15.88;;;4.70;99.90;;;;;;4959054;29;20058;-73
2021/12/07 12:55:45;;;;;;;27.55;16.50;;;4.70;99.90;;;;;;4959118;29;20019;-71
2021/12/07 12:58:36;;;;;;;26.60;15.82;;;4.80;99.90;;;;;;4960662;29;20023;-73
2021/12/07 13:01:10;;;;;;;29.40;17.23;;;4.70;99.90;;;;;;4952908;29;20045;-72
2021/12/07 13:04:03;;;;;;;31.23;17.08;;;4.70;99.90;;;;;;4962312;28;20027;-71
2021/12/07 13:06:32;;;;;;;25.63;16.25;;;4.70;99.90;;;;;;4960529;28;20065;-70
2021/12/07 13:09:10;;;;;;;27.73;17.92;;;4.70;99.90;;;;;;4960772;28;20019;-70
2021/12/07 13:11:41;;;;;;;27.17;16.30;;;4.70;99.90;;;;;;4959450;28;20090;-72
2021/12/07 13:14:12;;;;;;;30.77;17.80;;;4.80;99.90;;;;;;4960366;28;20027;-71
2021/12/07 13:16:47;;;;;;;31.52;17.20;;;4.90;99.90;;;;;;4958819;29;20175;-74
2021/12/07 13:19:12;;;;;;;25.48;15.73;;;4.90;99.90;;;;;;4961163;28;20057;-71
2021/12/07 13:21:40;;;;;;;22.30;14.45;;;4.90;99.90;;;;;;4960011;29;20042;-69
2021/12/07 13:24:12;;;;;;;29.02;17.02;;;4.90;99.90;;;;;;4959375;29;20023;-70
2021/12/07 13:26:49;;;;;;;25.45;15.95;;;4.80;99.90;;;;;;4958921;29;20063;-71
2021/12/07 13:29:18;;;;;;;25.05;15.88;;;4.80;99.90;;;;;;4960373;28;20030;-70
2021/12/07 13:31:46;;;;;;;23.35;14.38;;;4.80;99.90;;;;;;4959374;29;20043;-69
2021/12/07 13:34:14;;;;;;;23.70;13.63;;;4.80;99.90;;;;;;4960714;28;20019;-70
2021/12/07 13:36:43;;;;;;;22.08;13.98;;;4.80;99.90;;;;;;4961921;28;20027;-70
2021/12/07 13:39:12;;;;;;;26.23;15.15;;;4.80;99.90;;;;;;4963198;29;20023;-69
2021/12/07 13:42:16;;;;;;;20.65;13.05;;;4.80;99.90;;;;;;4963632;29;20408;-72
2021/12/07 13:44:43;;;;;;;19.02;12.40;;;4.80;99.90;;;;;;4962804;29;20298;-70
2021/12/07 13:47:23;;;;;;;20.47;13.27;;;4.90;99.90;;;;;;4963844;28;20286;-70
2021/12/07 13:49:55;;;;;;;19.13;12.55;;;4.90;99.90;;;;;;4964052;28;20078;-69
2021/12/07 13:52:26;;;;;;;17.95;11.60;;;4.90;99.90;;;;;;4964214;28;20062;-69
2021/12/07 13:54:56;;;;;;;18.65;11.65;;;4.90;99.90;;;;;;4983299;28;20123;-69
2021/12/07 13:57:29;;;;;;;18.85;12.02;;;4.80;99.90;;;;;;4982878;28;20014;-69
2021/12/07 14:00:08;;;;;;;25.77;13.82;;;4.80;99.90;;;;;;4983364;28;20019;-70
2021/12/07 14:02:35;;;;;;;19.55;11.77;;;4.80;99.90;;;;;;4965936;28;20045;-70
2021/12/07 14:05:08;;;;;;;18.67;10.95;;;4.90;99.90;;;;;;4966195;28;20057;-70
2021/12/07 14:07:35;;;;;;;21.55;13.13;;;4.90;99.90;;;;;;4982804;28;20022;-71
2021/12/07 14:10:17;;;;;;;15.18;9.02;;;4.80;99.90;;;;;;4982967;28;20027;-72
2021/12/07 14:12:44;;;;;;;15.32;10.50;;;4.80;99.90;;;;;;4965561;28;20026;-70
2021/12/07 14:15:25;;;;;;;17.05;10.27;;;4.80;99.90;;;;;;4983521;28;20023;-71
2021/12/07 14:17:55;;;;;;;20.23;10.35;;;4.70;99.90;;;;;;4983590;28;20116;-70
2021/12/07 14:20:42;;;;;;;23.15;10.13;;;4.70;99.90;;;;;;4965897;28;20246;-71
2021/12/07 14:23:24;;;;;;;20.20;10.13;;;4.70;99.90;;;;;;4983206;28;20318;-70
2021/12/07 14:26:00;;;;;;;17.38;9.38;;;4.80;99.90;;;;;;4982880;28;20089;-71
2021/12/07 14:28:46;;;;;;;15.13;8.60;;;4.70;99.90;;;;;;4965565;28;20038;-73
2021/12/07 14:31:16;;;;;;;13.60;7.82;;;4.70;99.90;;;;;;4965475;28;20073;-71
2021/12/07 14:33:54;;;;;;;12.25;7.65;;;4.80;99.90;;;;;;4965260;28;20053;-72